Time;durP1;ratioP1;P1;durP2;ratioP2;P2;SDS_P1;SDS_P2;PMS_P1;PMS_P2;Temp;Humidity;BMP_temperature;BMP_pressure;BME280_temperature;BME280_humidity;BME280_pressure;Samples;Min_cycle;Max_cycle;Signal;HPM_P1;HPM_P2
2023/08/20 00:00:18;;;;;;;0.00;0.00;;;23.80;99.90;;;;;;5051124;28;20181;-63
2023/08/20 00:02:46;;;;;;;0.00;0.00;;;23.70;99.90;;;;;;5050969;28;20571;-63
2023/08/20 00:05:13;;;;;;;0.88;0.63;;;23.70;99.90;;;;;;5050973;28;20236;-63
2023/08/20 00:07:39;;;;;;;0.25;0.10;;;23.60;99.90;;;;;;5050971;28;20185;-63
2023/08/20 00:10:05;;;;;;;0.00;0.00;;;23.60;99.90;;;;;;5050891;28;20173;-63
2023/08/20 00:12:31;;;;;;;0.00;0.00;;;23.60;99.90;;;;;;5050943;28;20559;-63
2023/08/20 00:15:04;;;;;;;0.00;0.00;;;23.60;99.90;;;;;;5051047;28;20174;-63
2023/08/20 00:17:32;;;;;;;0.00;0.00;;;23.50;99.90;;;;;;5050917;28;20174;-63
2023/08/20 00:19:58;;;;;;;0.00;0.00;;;23.50;99.90;;;;;;5049784;28;20539;-63
2023/08/20 00:22:24;;;;;;;0.00;0.00;;;23.50;99.90;;;;;;5050698;28;20182;-63
2023/08/20 00:24:51;;;;;;;0.00;0.00;;;23.50;99.90;;;;;;5050927;28;20181;-63
2023/08/20 00:27:17;;;;;;;0.08;0.00;;;23.50;99.90;;;;;;5050744;28;20204;-63
2023/08/20 00:29:43;;;;;;;0.00;0.00;;;23.50;99.90;;;;;;5050321;28;20222;-63
2023/08/20 00:32:09;;;;;;;0.00;0.00;;;23.50;99.90;;;;;;5050574;28;20224;-62
2023/08/20 00:34:34;;;;;;;0.00;0.00;;;23.50;99.90;;;;;;5050826;28;20198;-63
2023/08/20 00:37:01;;;;;;;0.05;0.05;;;23.50;99.90;;;;;;5050575;28;20703;-63
2023/08/20 00:39:26;;;;;;;0.00;0.00;;;23.50;99.90;;;;;;5050828;28;20181;-63
2023/08/20 00:41:52;;;;;;;0.00;0.00;;;23.40;99.90;;;;;;5050657;28;20231;-63
2023/08/20 00:44:18;;;;;;;0.40;0.40;;;23.40;99.90;;;;;;5051363;28;20656;-63
2023/08/20 00:46:43;;;;;;;0.00;0.00;;;23.40;99.90;;;;;;5054249;28;20632;-63
2023/08/20 00:49:09;;;;;;;0.20;0.20;;;23.40;99.90;;;;;;5054211;28;20542;-63
2023/08/20 00:51:35;;;;;;;0.00;0.00;;;23.40;99.90;;;;;;5054163;28;20235;-64
2023/08/20 00:54:02;;;;;;;0.00;0.00;;;23.40;99.90;;;;;;5054125;28;20173;-63
2023/08/20 00:56:28;;;;;;;0.08;0.08;;;23.30;99.90;;;;;;5054236;28;20186;-63
2023/08/20 00:58:54;;;;;;;0.00;0.00;;;23.30;99.90;;;;;;5054027;28;20177;-63
2023/08/20 01:01:21;;;;;;;0.20;0.20;;;23.30;99.90;;;;;;5053893;28;20578;-64
2023/08/20 01:03:47;;;;;;;0.17;0.17;;;23.30;99.90;;;;;;5053981;28;20169;-63
2023/08/20 01:06:23;;;;;;;0.00;0.00;;;23.30;99.90;;;;;;5053791;28;20633;-63
2023/08/20 01:08:59;;;;;;;0.00;0.00;;;23.30;99.90;;;;;;5054147;28;20181;-63
2023/08/20 01:11:31;;;;;;;0.00;0.00;;;23.20;99.90;;;;;;5053981;28;20271;-63
2023/08/20 01:13:58;;;;;;;0.00;0.00;;;23.20;99.90;;;;;;5053953;28;20169;-63
2023/08/20 01:16:24;;;;;;;0.20;0.20;;;23.20;99.90;;;;;;5053885;28;20692;-63
2023/08/20 01:18:50;;;;;;;0.00;0.00;;;23.20;99.90;;;;;;5053868;28;20277;-63
2023/08/20 01:21:29;;;;;;;0.15;0.15;;;23.20;99.90;;;;;;5053789;28;20174;-63
2023/08/20 01:23:55;;;;;;;2.50;1.33;;;23.10;99.90;;;;;;5053806;28;20248;-63
2023/08/20 01:26:50;;;;;;;0.00;0.00;;;23.10;99.90;;;;;;5053729;28;20709;-63
2023/08/20 01:29:16;;;;;;;0.00;0.00;;;23.00;99.90;;;;;;5053420;28;20569;-63
2023/08/20 01:31:44;;;;;;;0.00;0.00;;;23.00;99.90;;;;;;5053460;28;20221;-63
2023/08/20 01:34:10;;;;;;;0.00;0.00;;;23.00;99.90;;;;;;5053488;28;20181;-63
2023/08/20 01:36:35;;;;;;;0.00;0.00;;;22.90;99.90;;;;;;5053613;28;20181;-63
2023/08/20 01:39:01;;;;;;;0.00;0.00;;;22.90;99.90;;;;;;5053456;28;20170;-63
2023/08/20 01:41:26;;;;;;;0.00;0.00;;;22.90;99.90;;;;;;5053059;28;20180;-63
2023/08/20 01:43:52;;;;;;;0.00;0.00;;;22.90;99.90;;;;;;5053228;28;20196;-63
2023/08/20 01:46:17;;;;;;;0.00;0.00;;;22.80;99.90;;;;;;5053131;28;20173;-63
2023/08/20 01:48:43;;;;;;;0.00;0.00;;;22.80;99.90;;;;;;5053192;28;20540;-63
2023/08/20 01:51:09;;;;;;;0.00;0.00;;;22.80;99.90;;;;;;5052936;28;20248;-62
2023/08/20 01:53:35;;;;;;;0.00;0.00;;;22.80;99.90;;;;;;5053071;28;20178;-63
2023/08/20 01:56:00;;;;;;;0.00;0.00;;;22.70;99.90;;;;;;5052413;28;20174;-63
2023/08/20 01:58:26;;;;;;;0.00;0.00;;;22.70;99.90;;;;;;5053092;28;20173;-63
2023/08/20 02:00:52;;;;;;;0.00;0.00;;;22.70;99.90;;;;;;5052888;28;20266;-63
2023/08/20 02:03:17;;;;;;;0.13;0.13;;;22.70;99.90;;;;;;5052823;28;20216;-63
2023/08/20 02:05:43;;;;;;;0.00;0.00;;;22.60;99.90;;;;;;5052821;28;20653;-63
2023/08/20 02:08:08;;;;;;;0.00;0.00;;;22.60;99.90;;;;;;5052733;28;20282;-63
2023/08/20 02:10:34;;;;;;;0.00;0.00;;;22.60;99.90;;;;;;5052578;28;20258;-63
2023/08/20 02:12:59;;;;;;;0.50;0.30;;;22.60;99.90;;;;;;5052636;28;20181;-63
2023/08/20 02:15:25;;;;;;;0.00;0.00;;;22.60;99.90;;;;;;5052779;28;20219;-63
2023/08/20 02:17:50;;;;;;;0.00;0.00;;;22.50;99.90;;;;;;5052568;28;20201;-63
2023/08/20 02:20:16;;;;;;;0.00;0.00;;;22.50;99.90;;;;;;5052591;28;20173;-63
2023/08/20 02:22:42;;;;;;;0.00;0.00;;;22.50;99.90;;;;;;5052531;28;20675;-63
2023/08/20 02:25:07;;;;;;;0.13;0.13;;;22.40;99.90;;;;;;5052346;28;20633;-63
2023/08/20 02:27:33;;;;;;;0.00;0.00;;;22.40;99.90;;;;;;5052428;28;20189;-63
2023/08/20 02:29:59;;;;;;;0.00;0.00;;;22.40;99.90;;;;;;5052237;28;20696;-63
2023/08/20 02:32:24;;;;;;;0.00;0.00;;;22.30;99.90;;;;;;5052467;28;20676;-63
2023/08/20 02:34:51;;;;;;;0.00;0.00;;;22.30;99.90;;;;;;5052459;28;20170;-63
2023/08/20 02:37:16;;;;;;;0.30;0.30;;;22.30;99.90;;;;;;5052193;28;20596;-63
2023/08/20 02:39:42;;;;;;;0.15;0.10;;;22.20;99.90;;;;;;5052425;28;20174;-63
2023/08/20 02:42:07;;;;;;;0.00;0.00;;;22.20;99.90;;;;;;5052298;28;20759;-63
2023/08/20 02:44:33;;;;;;;0.00;0.00;;;22.20;99.90;;;;;;5051967;28;20181;-63
2023/08/20 02:46:58;;;;;;;0.17;0.17;;;22.20;99.90;;;;;;5052092;28;20169;-63
2023/08/20 02:49:24;;;;;;;0.00;0.00;;;22.20;99.90;;;;;;5052201;28;20197;-63
2023/08/20 02:51:49;;;;;;;0.00;0.00;;;22.10;99.90;;;;;;5052028;28;20221;-63
2023/08/20 02:54:15;;;;;;;0.00;0.00;;;22.10;99.90;;;;;;5051976;28;20205;-63
2023/08/20 02:56:41;;;;;;;0.17;0.17;;;22.10;99.90;;;;;;5052129;28;20185;-63
2023/08/20 02:59:07;;;;;;;0.00;0.00;;;22.10;99.90;;;;;;5052080;28;20177;-63
2023/08/20 03:01:32;;;;;;;0.05;0.05;;;22.10;99.90;;;;;;5052093;28;20193;-63
2023/08/20 03:03:58;;;;;;;0.00;0.00;;;22.10;99.90;;;;;;5051906;28;20170;-63
2023/08/20 03:06:23;;;;;;;0.00;0.00;;;22.10;99.90;;;;;;5051976;28;20249;-63
2023/08/20 03:08:49;;;;;;;0.08;0.08;;;22.00;99.90;;;;;;5051102;28;20188;-63
2023/08/20 03:11:14;;;;;;;0.00;0.00;;;22.00;99.90;;;;;;5051666;28;20300;-62
2023/08/20 03:13:40;;;;;;;0.00;0.00;;;21.90;99.90;;;;;;5051838;28;20177;-63
2023/08/20 03:16:05;;;;;;;0.00;0.00;;;21.90;99.90;;;;;;5051777;28;20633;-63
2023/08/20 03:18:31;;;;;;;0.00;0.00;;;21.80;99.90;;;;;;5050611;28;20256;-63
2023/08/20 03:20:56;;;;;;;0.00;0.00;;;21.80;99.90;;;;;;5051646;28;20178;-63
2023/08/20 03:23:23;;;;;;;0.08;0.08;;;21.80;99.90;;;;;;5051670;28;20184;-63
2023/08/20 03:25:49;;;;;;;0.00;0.00;;;21.80;99.90;;;;;;5051723;28;20177;-63
2023/08/20 03:28:15;;;;;;;0.00;0.00;;;21.80;99.90;;;;;;5051304;28;20239;-62
2023/08/20 03:30:40;;;;;;;0.00;0.00;;;21.80;99.90;;;;;;5051408;28;20625;-63
2023/08/20 03:33:06;;;;;;;0.03;0.03;;;21.80;99.90;;;;;;5051643;28;20169;-63
2023/08/20 03:35:31;;;;;;;0.20;0.20;;;21.80;99.90;;;;;;5051448;28;20207;-63
2023/08/20 03:37:57;;;;;;;0.00;0.00;;;21.70;99.90;;;;;;5051338;28;20174;-62
2023/08/20 03:40:22;;;;;;;0.00;0.00;;;21.70;99.90;;;;;;5051593;28;20184;-63
2023/08/20 03:42:48;;;;;;;0.00;0.00;;;21.60;99.90;;;;;;5051468;28;20173;-63
2023/08/20 03:45:13;;;;;;;0.00;0.00;;;21.60;99.90;;;;;;5051155;28;20641;-63
2023/08/20 03:47:39;;;;;;;0.00;0.00;;;21.60;99.90;;;;;;5051197;28;20188;-63
2023/08/20 03:50:05;;;;;;;0.05;0.05;;;21.60;99.90;;;;;;5051137;28;20613;-63
2023/08/20 03:52:31;;;;;;;0.20;0.20;;;21.50;99.90;;;;;;5051148;28;20216;-63
2023/08/20 03:54:56;;;;;;;0.00;0.00;;;21.50;99.90;;;;;;5051047;28;20177;-63
2023/08/20 03:57:22;;;;;;;0.00;0.00;;;21.50;99.90;;;;;;5051290;28;20535;-63
2023/08/20 03:59:47;;;;;;;0.00;0.00;;;21.50;99.90;;;;;;5051033;28;20178;-62
2023/08/20 04:02:14;;;;;;;0.20;0.20;;;21.40;99.90;;;;;;5050697;28;20552;-63
2023/08/20 04:04:40;;;;;;;0.00;0.00;;;21.50;99.90;;;;;;5050819;28;20165;-63
2023/08/20 04:07:05;;;;;;;0.00;0.00;;;21.40;99.90;;;;;;5050754;28;20245;-62
2023/08/20 04:09:33;;;;;;;0.10;0.10;;;21.40;99.90;;;;;;5050834;28;20216;-63
2023/08/20 04:11:59;;;;;;;0.13;0.08;;;21.40;99.90;;;;;;5050665;28;20551;-63
2023/08/20 04:14:24;;;;;;;0.00;0.00;;;21.40;99.90;;;;;;5050883;28;20718;-62
2023/08/20 04:16:50;;;;;;;0.32;0.32;;;21.40;99.90;;;;;;5050693;28;20188;-63
2023/08/20 04:19:15;;;;;;;0.00;0.00;;;21.30;99.90;;;;;;5051210;28;20260;-62
2023/08/20 04:21:41;;;;;;;0.00;0.00;;;21.40;99.90;;;;;;5054745;28;20209;-62
2023/08/20 04:24:06;;;;;;;0.00;0.00;;;21.30;99.90;;;;;;5054660;28;20708;-62
2023/08/20 04:26:32;;;;;;;0.00;0.00;;;21.30;99.90;;;;;;5054765;28;20177;-62
2023/08/20 04:28:57;;;;;;;0.00;0.00;;;21.30;99.90;;;;;;5054273;28;20282;-63
2023/08/20 04:31:23;;;;;;;0.22;0.22;;;21.40;99.90;;;;;;5054548;28;20213;-62
2023/08/20 04:33:48;;;;;;;0.00;0.00;;;21.30;99.90;;;;;;5054620;28;20181;-62
2023/08/20 04:36:14;;;;;;;0.00;0.00;;;21.30;99.90;;;;;;5054176;28;20178;-62
2023/08/20 04:38:39;;;;;;;0.13;0.13;;;21.30;99.90;;;;;;5054431;28;20176;-63
2023/08/20 04:41:05;;;;;;;0.00;0.00;;;21.30;99.90;;;;;;5054425;28;20177;-62
2023/08/20 04:43:30;;;;;;;0.00;0.00;;;21.30;99.90;;;;;;5054430;28;20193;-63
2023/08/20 04:45:56;;;;;;;0.00;0.00;;;21.30;99.90;;;;;;5054054;28;20169;-62
2023/08/20 04:48:21;;;;;;;0.10;0.10;;;21.30;99.90;;;;;;5054017;28;20341;-63
2023/08/20 04:50:47;;;;;;;0.00;0.00;;;21.30;99.90;;;;;;5053865;28;20209;-63
2023/08/20 04:53:12;;;;;;;0.00;0.00;;;21.30;99.90;;;;;;5053748;28;20244;-63
2023/08/20 04:55:38;;;;;;;0.00;0.00;;;21.30;99.90;;;;;;5053840;28;20197;-63
2023/08/20 04:58:03;;;;;;;0.00;0.00;;;21.40;99.90;;;;;;5053604;28;20204;-62
2023/08/20 05:00:29;;;;;;;0.00;0.00;;;21.40;99.90;;;;;;5052586;28;20199;-63
2023/08/20 05:02:55;;;;;;;0.00;0.00;;;21.40;99.90;;;;;;5053615;28;20184;-62
2023/08/20 05:05:21;;;;;;;0.03;0.00;;;21.40;99.90;;;;;;5053759;28;20676;-63
2023/08/20 05:07:47;;;;;;;0.00;0.00;;;21.50;99.90;;;;;;5053715;28;20189;-62
2023/08/20 05:10:12;;;;;;;0.00;0.00;;;21.50;99.90;;;;;;5053617;28;20181;-63
2023/08/20 05:12:38;;;;;;;0.00;0.00;;;21.60;99.90;;;;;;5053650;28;20699;-63
2023/08/20 05:15:04;;;;;;;0.10;0.10;;;21.70;99.90;;;;;;5053446;28;20219;-62
2023/08/20 05:17:30;;;;;;;0.00;0.00;;;21.80;99.90;;;;;;5053468;28;20185;-63
2023/08/20 05:19:55;;;;;;;0.08;0.03;;;22.00;99.90;;;;;;5053305;28;20174;-63
2023/08/20 05:22:21;;;;;;;0.00;0.00;;;22.20;99.90;;;;;;5053334;28;20181;-63
2023/08/20 05:24:46;;;;;;;0.00;0.00;;;22.50;99.90;;;;;;5053409;28;20173;-63
2023/08/20 05:27:14;;;;;;;1.88;1.55;;;22.90;99.90;;;;;;5053338;28;20664;-62
2023/08/20 05:29:40;;;;;;;0.22;0.22;;;23.20;99.90;;;;;;5053282;28;20231;-62
2023/08/20 05:32:06;;;;;;;0.00;0.00;;;23.40;99.90;;;;;;5052174;28;20213;-62
2023/08/20 05:34:32;;;;;;;0.00;0.00;;;23.50;99.90;;;;;;5053269;28;20621;-62
2023/08/20 05:36:57;;;;;;;0.00;0.00;;;23.60;99.90;;;;;;5052969;28;20181;-63
2023/08/20 05:39:23;;;;;;;0.00;0.00;;;23.80;99.90;;;;;;5053337;28;20185;-63
2023/08/20 05:41:49;;;;;;;0.05;0.05;;;23.90;99.90;;;;;;5053258;28;20177;-63
2023/08/20 05:44:14;;;;;;;0.00;0.00;;;23.90;99.90;;;;;;5052902;28;20220;-63
2023/08/20 05:46:40;;;;;;;0.15;0.10;;;24.00;99.90;;;;;;5053026;28;20532;-63
2023/08/20 05:49:06;;;;;;;0.00;0.00;;;24.30;99.90;;;;;;5052927;28;20268;-63
2023/08/20 05:51:32;;;;;;;0.00;0.00;;;24.70;99.90;;;;;;5052727;28;20275;-63
2023/08/20 05:53:57;;;;;;;0.00;0.00;;;25.00;99.90;;;;;;5052695;28;20257;-63
2023/08/20 05:56:22;;;;;;;0.00;0.00;;;25.10;99.90;;;;;;5052672;28;20277;-63
2023/08/20 05:58:48;;;;;;;0.00;0.00;;;25.10;99.90;;;;;;5052861;28;20193;-62
2023/08/20 06:01:13;;;;;;;0.00;0.00;;;25.00;99.90;;;;;;5052455;28;20598;-63
2023/08/20 06:03:39;;;;;;;1.65;0.80;;;25.00;99.90;;;;;;5052540;28;20186;-63
2023/08/20 06:06:04;;;;;;;0.38;0.38;;;25.00;99.90;;;;;;5052444;28;20189;-63
2023/08/20 06:08:30;;;;;;;0.00;0.00;;;25.10;99.90;;;;;;5052515;28;20656;-63
2023/08/20 06:10:55;;;;;;;0.00;0.00;;;25.10;99.90;;;;;;5052206;28;20266;-63
2023/08/20 06:13:21;;;;;;;0.00;0.00;;;25.20;99.90;;;;;;5052524;28;20173;-63
2023/08/20 06:15:46;;;;;;;0.20;0.17;;;25.30;99.90;;;;;;5052524;28;20181;-63
2023/08/20 06:18:12;;;;;;;0.03;0.03;;;25.30;99.90;;;;;;5052314;28;20271;-63
2023/08/20 06:20:38;;;;;;;1.45;1.20;;;25.30;99.90;;;;;;5052362;28;20269;-63
2023/08/20 06:23:03;;;;;;;0.03;0.03;;;25.20;99.90;;;;;;5052111;28;20182;-63
2023/08/20 06:25:29;;;;;;;0.00;0.00;;;25.30;99.90;;;;;;5052237;28;20182;-63
2023/08/20 06:27:55;;;;;;;0.00;0.00;;;25.30;99.90;;;;;;5051946;28;20180;-63
2023/08/20 06:30:20;;;;;;;0.00;0.00;;;25.40;99.90;;;;;;5051852;28;20312;-63
2023/08/20 06:32:46;;;;;;;0.00;0.00;;;25.50;99.90;;;;;;5052009;28;20323;-63
2023/08/20 06:35:11;;;;;;;0.00;0.00;;;25.70;99.90;;;;;;5051912;28;20293;-63
2023/08/20 06:37:39;;;;;;;0.00;0.00;;;25.70;99.90;;;;;;5051897;28;20256;-63
2023/08/20 06:40:05;;;;;;;0.00;0.00;;;25.90;99.90;;;;;;5051834;28;20719;-63
2023/08/20 06:42:31;;;;;;;0.00;0.00;;;26.00;99.90;;;;;;5051615;28;20177;-63
2023/08/20 06:44:56;;;;;;;0.00;0.00;;;26.00;99.90;;;;;;5051635;28;20196;-63
2023/08/20 06:47:22;;;;;;;0.00;0.00;;;26.00;99.90;;;;;;5051854;28;20184;-63
2023/08/20 06:49:49;;;;;;;0.00;0.00;;;26.10;99.90;;;;;;5051579;28;20254;-63
2023/08/20 06:52:14;;;;;;;0.00;0.00;;;26.20;99.90;;;;;;5051295;28;20217;-63
2023/08/20 06:54:40;;;;;;;0.00;0.00;;;26.40;99.90;;;;;;5051431;28;20185;-63
2023/08/20 06:57:05;;;;;;;0.00;0.00;;;26.80;99.90;;;;;;5051434;28;20275;-63
2023/08/20 06:59:31;;;;;;;0.00;0.00;;;27.40;99.90;;;;;;5051406;28;20166;-63
2023/08/20 07:01:57;;;;;;;0.05;0.05;;;27.80;99.90;;;;;;5051496;28;20181;-63
2023/08/20 07:04:22;;;;;;;0.00;0.00;;;28.00;99.90;;;;;;5051621;28;20170;-63
2023/08/20 07:06:48;;;;;;;0.00;0.00;;;28.10;99.90;;;;;;5051517;28;20652;-63
2023/08/20 07:09:13;;;;;;;0.00;0.00;;;28.00;99.90;;;;;;5051433;28;20195;-63
2023/08/20 07:11:39;;;;;;;0.55;0.30;;;28.00;99.90;;;;;;5051731;28;20209;-63
2023/08/20 07:14:04;;;;;;;0.10;0.10;;;27.90;99.90;;;;;;5051755;28;20235;-63
2023/08/20 07:16:30;;;;;;;0.20;0.20;;;27.90;99.90;;;;;;5051657;28;20238;-63
2023/08/20 07:18:56;;;;;;;0.40;0.32;;;27.80;99.90;;;;;;5051588;28;20177;-63
2023/08/20 07:21:22;;;;;;;0.77;0.57;;;27.70;99.90;;;;;;5051687;28;20248;-63
2023/08/20 07:23:47;;;;;;;0.00;0.00;;;27.80;99.90;;;;;;5051535;28;20235;-63
2023/08/20 07:26:13;;;;;;;0.00;0.00;;;28.50;99.90;;;;;;5051483;28;20181;-63
2023/08/20 07:28:56;;;;;;;0.00;0.00;;;29.60;99.90;;;;;;5051355;28;20232;-62
2023/08/20 07:31:30;;;;;;;0.20;0.20;;;30.80;99.90;;;;;;5051529;28;20304;-63
2023/08/20 07:33:56;;;;;;;0.15;0.15;;;31.80;99.90;;;;;;5051303;28;20528;-63
2023/08/20 07:36:24;;;;;;;0.00;0.00;;;32.30;99.90;;;;;;5051447;28;20211;-63
2023/08/20 07:38:50;;;;;;;0.17;0.05;;;32.80;99.70;;;;;;5051325;28;20188;-63
2023/08/20 07:41:16;;;;;;;0.00;0.00;;;33.30;98.40;;;;;;5051160;28;20188;-62
2023/08/20 07:43:42;;;;;;;0.00;0.00;;;33.80;97.70;;;;;;5051439;28;20177;-63
2023/08/20 07:46:09;;;;;;;0.00;0.00;;;34.10;96.00;;;;;;5051191;28;20168;-63
2023/08/20 07:48:35;;;;;;;0.00;0.00;;;33.90;95.10;;;;;;5051218;28;20200;-63
2023/08/20 07:51:02;;;;;;;0.10;0.00;;;33.50;95.20;;;;;;5051058;28;20295;-63
2023/08/20 07:53:27;;;;;;;0.30;0.20;;;33.30;95.00;;;;;;5051122;28;20184;-62
2023/08/20 07:55:53;;;;;;;0.00;0.00;;;33.20;95.60;;;;;;5050650;28;20180;-63
2023/08/20 07:58:18;;;;;;;0.00;0.00;;;33.30;95.00;;;;;;5051241;28;20165;-62
2023/08/20 08:00:44;;;;;;;0.00;0.00;;;33.40;95.50;;;;;;5051249;28;20177;-62
2023/08/20 08:03:09;;;;;;;0.03;0.03;;;33.80;95.20;;;;;;5051134;28;20863;-63
2023/08/20 08:05:36;;;;;;;0.00;0.00;;;34.20;94.10;;;;;;5051018;28;20259;-62
2023/08/20 08:08:02;;;;;;;0.05;0.05;;;34.70;94.20;;;;;;5051057;28;20261;-62
2023/08/20 08:10:28;;;;;;;0.00;0.00;;;35.20;93.30;;;;;;5050987;28;20169;-63
2023/08/20 08:12:53;;;;;;;0.00;0.00;;;35.40;92.20;;;;;;5051003;28;20196;-63
2023/08/20 08:15:19;;;;;;;0.00;0.00;;;35.70;92.00;;;;;;5051085;28;20191;-63
2023/08/20 08:17:44;;;;;;;0.00;0.00;;;36.10;90.90;;;;;;5051133;28;20532;-63
2023/08/20 08:20:10;;;;;;;0.00;0.00;;;36.50;89.10;;;;;;5050894;28;20515;-63
2023/08/20 08:22:35;;;;;;;0.00;0.00;;;36.80;89.60;;;;;;5050882;28;20181;-63
2023/08/20 08:25:01;;;;;;;0.00;0.00;;;37.10;86.60;;;;;;5050882;28;20238;-63
2023/08/20 08:27:26;;;;;;;0.00;0.00;;;37.50;85.10;;;;;;5051015;28;20571;-63
2023/08/20 08:29:52;;;;;;;0.20;0.20;;;37.90;83.30;;;;;;5050667;28;20248;-63
2023/08/20 08:32:17;;;;;;;0.03;0.03;;;38.10;81.20;;;;;;5050648;28;20240;-62
2023/08/20 08:34:43;;;;;;;0.00;0.00;;;38.30;79.20;;;;;;5050859;28;20248;-63
2023/08/20 08:37:08;;;;;;;0.00;0.00;;;38.40;77.90;;;;;;5050797;28;20328;-62
2023/08/20 08:39:34;;;;;;;0.00;0.00;;;38.50;78.80;;;;;;5050771;28;20212;-62
2023/08/20 08:42:04;;;;;;;0.10;0.10;;;38.70;77.70;;;;;;5050662;28;20538;-62
2023/08/20 08:44:33;;;;;;;0.05;0.05;;;38.70;76.50;;;;;;5050769;28;20181;-62
2023/08/20 08:47:03;;;;;;;0.00;0.00;;;38.70;74.10;;;;;;5050557;28;20735;-62
2023/08/20 08:49:30;;;;;;;0.55;0.15;;;38.70;74.00;;;;;;5050742;28;20260;-63
2023/08/20 08:51:57;;;;;;;0.15;0.10;;;38.60;72.60;;;;;;5050432;28;20688;-62
2023/08/20 08:54:23;;;;;;;0.08;0.08;;;38.40;73.00;;;;;;5050761;28;20184;-63
2023/08/20 08:56:49;;;;;;;0.00;0.00;;;38.10;72.40;;;;;;5050723;28;20165;-62
2023/08/20 08:59:15;;;;;;;0.22;0.10;;;37.90;74.00;;;;;;5050482;28;20166;-63
2023/08/20 09:01:41;;;;;;;0.05;0.05;;;37.80;74.40;;;;;;5050704;28;20191;-62
2023/08/20 09:04:07;;;;;;;0.00;0.00;;;37.70;73.30;;;;;;5050642;28;20165;-63
2023/08/20 09:06:54;;;;;;;0.10;0.10;;;37.40;74.50;;;;;;5051647;28;20654;-63
2023/08/20 09:09:21;;;;;;;0.30;0.30;;;37.30;74.80;;;;;;5054134;28;20192;-63
2023/08/20 09:11:47;;;;;;;0.00;0.00;;;37.20;76.40;;;;;;5054117;28;20220;-63
2023/08/20 09:14:23;;;;;;;0.00;0.00;;;37.20;77.10;;;;;;5053992;28;21046;-63
2023/08/20 09:16:57;;;;;;;0.00;0.00;;;37.40;75.70;;;;;;5054043;28;20188;-63
2023/08/20 09:19:23;;;;;;;0.00;0.00;;;37.70;74.20;;;;;;5053910;28;20173;-62
2023/08/20 09:21:49;;;;;;;0.00;0.00;;;38.00;74.30;;;;;;5053876;28;20203;-63
2023/08/20 09:24:15;;;;;;;0.00;0.00;;;38.20;71.90;;;;;;5053743;28;20173;-62
2023/08/20 09:26:46;;;;;;;0.00;0.00;;;38.30;73.30;;;;;;5054212;28;20644;-62
2023/08/20 09:29:12;;;;;;;0.05;0.05;;;38.40;73.80;;;;;;5053572;28;20307;-63
2023/08/20 09:31:38;;;;;;;0.00;0.00;;;38.20;70.40;;;;;;5053564;28;20330;-63
2023/08/20 09:34:04;;;;;;;0.00;0.00;;;38.20;70.60;;;;;;5053708;28;20331;-63
2023/08/20 09:36:34;;;;;;;0.05;0.05;;;38.30;69.90;;;;;;5053623;28;20169;-63
2023/08/20 09:39:02;;;;;;;0.30;0.30;;;38.30;70.50;;;;;;5053457;28;20183;-63
2023/08/20 09:41:28;;;;;;;0.00;0.00;;;38.50;70.80;;;;;;5053533;28;20522;-62
2023/08/20 09:43:58;;;;;;;0.00;0.00;;;38.60;68.00;;;;;;5053283;28;20176;-62
2023/08/20 09:46:27;;;;;;;0.10;0.10;;;38.70;67.70;;;;;;5053439;28;20204;-63
2023/08/20 09:48:55;;;;;;;0.00;0.00;;;38.70;67.20;;;;;;5053397;28;20283;-62
2023/08/20 09:51:26;;;;;;;0.00;0.00;;;38.70;66.90;;;;;;5053424;28;20224;-63
2023/08/20 09:54:19;;;;;;;0.00;0.00;;;38.60;67.40;;;;;;5053335;28;20172;-63
2023/08/20 09:56:51;;;;;;;0.00;0.00;;;38.60;67.40;;;;;;5053278;28;20177;-63
2023/08/20 09:59:17;;;;;;;0.00;0.00;;;38.50;65.60;;;;;;5053201;28;20189;-63
2023/08/20 10:01:43;;;;;;;0.00;0.00;;;38.40;67.20;;;;;;5053235;28;20180;-63
2023/08/20 10:04:09;;;;;;;0.00;0.00;;;38.30;67.10;;;;;;5053168;28;20192;-63
2023/08/20 10:06:36;;;;;;;0.00;0.00;;;38.00;65.40;;;;;;5052999;28;20184;-63
2023/08/20 10:09:02;;;;;;;0.10;0.10;;;37.90;68.90;;;;;;5052958;28;20177;-63
2023/08/20 10:11:28;;;;;;;0.20;0.15;;;37.90;67.80;;;;;;5053112;28;20274;-63
2023/08/20 10:13:54;;;;;;;0.05;0.05;;;38.00;68.20;;;;;;5052726;28;20177;-63
2023/08/20 10:16:21;;;;;;;0.00;0.00;;;38.10;67.90;;;;;;5052944;28;20173;-63
2023/08/20 10:18:48;;;;;;;0.10;0.10;;;38.00;64.50;;;;;;5052492;28;20314;-63
2023/08/20 10:21:13;;;;;;;0.10;0.10;;;37.70;64.70;;;;;;5052604;28;20169;-63
2023/08/20 10:23:48;;;;;;;0.00;0.00;;;37.50;68.40;;;;;;5052848;28;20188;-63
2023/08/20 10:26:14;;;;;;;0.00;0.00;;;37.50;65.60;;;;;;5052627;28;20174;-63
2023/08/20 10:28:40;;;;;;;0.10;0.10;;;37.50;64.90;;;;;;5052593;28;20238;-63
2023/08/20 10:31:14;;;;;;;0.00;0.00;;;37.50;66.50;;;;;;5052451;28;20201;-63
2023/08/20 10:33:49;;;;;;;0.45;0.45;;;37.60;66.60;;;;;;5052752;28;20544;-63
2023/08/20 10:36:17;;;;;;;0.00;0.00;;;37.70;65.30;;;;;;5052410;28;20173;-63
2023/08/20 10:38:45;;;;;;;0.10;0.10;;;37.60;64.00;;;;;;5052378;28;20173;-63
2023/08/20 10:41:11;;;;;;;0.00;0.00;;;37.60;65.10;;;;;;5052355;28;20191;-63
2023/08/20 10:43:45;;;;;;;0.00;0.00;;;37.60;65.30;;;;;;5052198;28;20279;-63
2023/08/20 10:46:19;;;;;;;0.00;0.00;;;37.70;66.60;;;;;;5052310;28;20188;-63
2023/08/20 10:48:58;;;;;;;0.00;0.00;;;37.70;64.80;;;;;;5052387;28;20169;-63
2023/08/20 10:51:25;;;;;;;0.00;0.00;;;37.50;64.20;;;;;;5052314;28;20615;-63
2023/08/20 10:54:04;;;;;;;0.00;0.00;;;37.40;65.90;;;;;;5052084;28;20177;-63
2023/08/20 10:56:40;;;;;;;0.00;0.00;;;37.60;65.10;;;;;;5052149;28;20535;-63
2023/08/20 10:59:08;;;;;;;0.00;0.00;;;37.60;64.90;;;;;;5052036;28;20202;-63
2023/08/20 11:01:34;;;;;;;0.30;0.30;;;37.60;64.70;;;;;;5051890;28;20181;-63
2023/08/20 11:04:04;;;;;;;0.00;0.00;;;37.60;64.40;;;;;;5051888;28;20177;-63
2023/08/20 11:06:32;;;;;;;0.10;0.10;;;37.50;64.30;;;;;;5052003;28;20173;-63
2023/08/20 11:08:57;;;;;;;0.03;0.03;;;37.30;64.30;;;;;;5051785;28;20180;-63
2023/08/20 11:11:24;;;;;;;0.00;0.00;;;37.00;66.20;;;;;;5051939;28;20208;-63
2023/08/20 11:13:49;;;;;;;0.00;0.00;;;37.20;66.90;;;;;;5051967;28;20260;-63
2023/08/20 11:16:15;;;;;;;0.17;0.10;;;37.30;64.60;;;;;;5051680;28;20247;-63
2023/08/20 11:18:41;;;;;;;0.10;0.10;;;37.60;62.40;;;;;;5051762;28;20184;-63
2023/08/20 11:21:08;;;;;;;0.00;0.00;;;37.80;61.30;;;;;;5051677;28;20176;-63
2023/08/20 11:23:34;;;;;;;0.08;0.08;;;37.90;60.40;;;;;;5051664;28;20181;-63
2023/08/20 11:26:00;;;;;;;0.00;0.00;;;37.90;62.20;;;;;;5051531;28;20651;-63
2023/08/20 11:28:27;;;;;;;0.00;0.00;;;37.90;60.60;;;;;;5051045;28;20183;-63
2023/08/20 11:30:53;;;;;;;0.15;0.15;;;38.00;60.20;;;;;;5051102;28;20181;-63
2023/08/20 11:33:19;;;;;;;0.00;0.00;;;38.10;60.30;;;;;;5051461;28;20185;-63
2023/08/20 11:35:44;;;;;;;0.00;0.00;;;38.00;60.20;;;;;;5051496;28;20173;-63
2023/08/20 11:38:10;;;;;;;0.00;0.00;;;37.90;61.50;;;;;;5051361;28;20258;-63
2023/08/20 11:40:36;;;;;;;0.50;0.50;;;38.00;60.90;;;;;;5051303;28;20247;-63
2023/08/20 11:43:02;;;;;;;0.13;0.10;;;38.00;59.50;;;;;;5051382;28;20644;-63
2023/08/20 11:45:27;;;;;;;0.05;0.05;;;37.80;60.00;;;;;;5051308;28;20181;-63
2023/08/20 11:48:00;;;;;;;0.10;0.10;;;37.60;60.30;;;;;;5051199;28;20205;-63
2023/08/20 11:50:25;;;;;;;0.00;0.00;;;37.40;59.30;;;;;;5051457;28;20314;-63
2023/08/20 11:52:55;;;;;;;0.00;0.00;;;37.30;60.30;;;;;;5051176;28;20739;-63
2023/08/20 11:55:24;;;;;;;0.00;0.00;;;37.30;61.40;;;;;;5051241;28;20711;-63
2023/08/20 11:57:52;;;;;;;0.00;0.00;;;37.30;60.00;;;;;;5051297;28;20213;-63
2023/08/20 12:00:26;;;;;;;0.00;0.00;;;37.40;60.40;;;;;;5051255;28;20643;-63
2023/08/20 12:02:54;;;;;;;0.00;0.00;;;37.50;60.80;;;;;;5051160;28;20180;-63
2023/08/20 12:05:20;;;;;;;0.10;0.10;;;37.40;62.70;;;;;;5050978;28;20631;-63
2023/08/20 12:07:56;;;;;;;0.17;0.17;;;37.40;61.70;;;;;;5051155;28;20184;-63
2023/08/20 12:10:22;;;;;;;0.50;0.50;;;37.20;63.40;;;;;;5051349;28;20180;-63
2023/08/20 12:12:49;;;;;;;0.00;0.00;;;37.30;63.20;;;;;;5051114;28;20212;-63
2023/08/20 12:15:15;;;;;;;0.00;0.00;;;37.50;62.10;;;;;;5050915;28;20169;-63
2023/08/20 12:17:40;;;;;;;0.00;0.00;;;37.60;61.50;;;;;;5051116;28;20188;-63
2023/08/20 12:20:12;;;;;;;0.00;0.00;;;37.40;60.70;;;;;;5050950;28;20529;-63
2023/08/20 12:22:39;;;;;;;0.10;0.10;;;37.20;61.50;;;;;;5051041;28;20177;-63
2023/08/20 12:25:06;;;;;;;0.00;0.00;;;37.10;61.80;;;;;;5050891;28;20586;-63
2023/08/20 12:27:32;;;;;;;0.00;0.00;;;36.90;64.20;;;;;;5051102;28;20173;-63
2023/08/20 12:29:57;;;;;;;0.00;0.00;;;37.00;63.60;;;;;;5050695;28;20232;-63
2023/08/20 12:32:23;;;;;;;0.00;0.00;;;36.90;63.60;;;;;;5050869;28;20684;-63
2023/08/20 12:34:48;;;;;;;0.43;0.43;;;36.70;61.80;;;;;;5051058;28;20195;-63
2023/08/20 12:37:14;;;;;;;0.00;0.00;;;36.60;64.80;;;;;;5050871;28;20173;-63
2023/08/20 12:39:39;;;;;;;0.00;0.00;;;36.70;65.20;;;;;;5050964;28;20169;-63
2023/08/20 12:42:05;;;;;;;0.03;0.03;;;36.80;65.00;;;;;;5054639;28;20176;-64
2023/08/20 12:44:30;;;;;;;0.00;0.00;;;37.00;62.50;;;;;;5054789;28;20628;-63